Terminal Aerodrome Forecast
Issued by NWS

Home | Current Version | Previous Version | Text Only | Print | Product List | Glossary On
Versions: 1 2 3 4 5 6 7 8 9 10 11 12 13 14
000
FTUS41 KCLE 220520
TAFFDY
TAF
KFDY 220520Z 2206/2306 06008KT P6SM BKN200
     FM221200 06005KT P6SM SCT200
     FM222100 06012KT P6SM FEW250
     FM230100 06009KT P6SM SKC=

USA.gov is the U.S. government's official web portal to all federal, state and local government web resources and services.